sensor_id;sensor_type;location;lat;lon;timestamp;P1;durP1;ratioP1;P2;durP2;ratioP2
8474;SDS011;4274;52.012;8.448;2022-08-03T00:01:33;50.80;;;5.63;;
8474;SDS011;4274;52.012;8.448;2022-08-03T00:03:59;52.03;;;6.03;;
8474;SDS011;4274;52.012;8.448;2022-08-03T00:06:25;52.63;;;5.13;;
8474;SDS011;4274;52.012;8.448;2022-08-03T00:08:50;52.07;;;5.60;;
8474;SDS011;4274;52.012;8.448;2022-08-03T00:11:16;52.13;;;6.03;;
8474;SDS011;4274;52.012;8.448;2022-08-03T00:13:42;58.90;;;7.10;;
8474;SDS011;4274;52.012;8.448;2022-08-03T00:16:08;51.20;;;6.00;;
8474;SDS011;4274;52.012;8.448;2022-08-03T00:18:34;54.23;;;6.53;;
8474;SDS011;4274;52.012;8.448;2022-08-03T00:21:01;52.67;;;6.13;;
8474;SDS011;4274;52.012;8.448;2022-08-03T00:23:27;53.20;;;6.13;;
8474;SDS011;4274;52.012;8.448;2022-08-03T00:25:52;54.90;;;6.40;;
8474;SDS011;4274;52.012;8.448;2022-08-03T00:28:18;50.13;;;5.80;;
8474;SDS011;4274;52.012;8.448;2022-08-03T00:30:43;53.60;;;5.90;;
8474;SDS011;4274;52.012;8.448;2022-08-03T00:33:09;50.30;;;5.53;;
8474;SDS011;4274;52.012;8.448;2022-08-03T00:35:35;49.37;;;5.40;;
8474;SDS011;4274;52.012;8.448;2022-08-03T00:38:00;58.93;;;5.00;;
8474;SDS011;4274;52.012;8.448;2022-08-03T00:40:26;53.97;;;6.03;;
8474;SDS011;4274;52.012;8.448;2022-08-03T00:42:53;51.90;;;6.03;;
8474;SDS011;4274;52.012;8.448;2022-08-03T00:45:21;50.40;;;5.67;;
8474;SDS011;4274;52.012;8.448;2022-08-03T00:47:49;50.90;;;6.20;;
8474;SDS011;4274;52.012;8.448;2022-08-03T00:50:16;53.50;;;6.03;;
8474;SDS011;4274;52.012;8.448;2022-08-03T00:52:43;57.20;;;5.87;;
8474;SDS011;4274;52.012;8.448;2022-08-03T00:55:09;55.93;;;5.43;;
8474;SDS011;4274;52.012;8.448;2022-08-03T00:57:35;54.27;;;6.00;;
8474;SDS011;4274;52.012;8.448;2022-08-03T01:00:03;52.00;;;5.60;;
8474;SDS011;4274;52.012;8.448;2022-08-03T01:02:30;50.90;;;5.77;;
8474;SDS011;4274;52.012;8.448;2022-08-03T01:04:57;53.00;;;6.20;;
8474;SDS011;4274;52.012;8.448;2022-08-03T01:13:02;51.00;;;6.20;;
8474;SDS011;4274;52.012;8.448;2022-08-03T01:18:38;51.63;;;5.97;;
8474;SDS011;4274;52.012;8.448;2022-08-03T01:21:13;53.07;;;5.87;;
8474;SDS011;4274;52.012;8.448;2022-08-03T01:26:50;55.87;;;5.63;;
8474;SDS011;4274;52.012;8.448;2022-08-03T01:29:51;55.40;;;5.90;;
8474;SDS011;4274;52.012;8.448;2022-08-03T01:35:13;55.53;;;6.60;;
8474;SDS011;4274;52.012;8.448;2022-08-03T01:38:01;57.07;;;5.70;;
8474;SDS011;4274;52.012;8.448;2022-08-03T01:40:30;53.13;;;5.77;;
8474;SDS011;4274;52.012;8.448;2022-08-03T01:42:58;52.50;;;5.77;;
8474;SDS011;4274;52.012;8.448;2022-08-03T01:45:27;53.50;;;5.70;;
8474;SDS011;4274;52.012;8.448;2022-08-03T01:47:55;50.50;;;5.50;;
8474;SDS011;4274;52.012;8.448;2022-08-03T01:50:23;49.80;;;5.40;;
8474;SDS011;4274;52.012;8.448;2022-08-03T01:52:53;52.60;;;5.90;;
8474;SDS011;4274;52.012;8.448;2022-08-03T01:55:20;50.53;;;5.50;;
8474;SDS011;4274;52.012;8.448;2022-08-03T01:57:47;53.43;;;6.10;;
8474;SDS011;4274;52.012;8.448;2022-08-03T02:00:14;50.10;;;6.03;;
8474;SDS011;4274;52.012;8.448;2022-08-03T02:02:41;52.50;;;6.67;;
8474;SDS011;4274;52.012;8.448;2022-08-03T02:05:09;58.00;;;6.10;;
8474;SDS011;4274;52.012;8.448;2022-08-03T02:07:36;53.70;;;6.07;;
8474;SDS011;4274;52.012;8.448;2022-08-03T02:10:05;53.40;;;6.60;;
8474;SDS011;4274;52.012;8.448;2022-08-03T02:12:33;51.60;;;5.80;;
8474;SDS011;4274;52.012;8.448;2022-08-03T02:15:01;51.20;;;5.53;;
8474;SDS011;4274;52.012;8.448;2022-08-03T02:17:27;49.87;;;5.97;;
8474;SDS011;4274;52.012;8.448;2022-08-03T02:19:56;55.77;;;5.93;;
8474;SDS011;4274;52.012;8.448;2022-08-03T02:22:24;53.03;;;5.53;;
8474;SDS011;4274;52.012;8.448;2022-08-03T02:24:50;52.43;;;6.07;;
8474;SDS011;4274;52.012;8.448;2022-08-03T02:27:20;53.30;;;5.63;;
8474;SDS011;4274;52.012;8.448;2022-08-03T02:29:50;51.73;;;6.07;;
8474;SDS011;4274;52.012;8.448;2022-08-03T02:32:33;55.23;;;5.90;;
8474;SDS011;4274;52.012;8.448;2022-08-03T02:35:01;51.23;;;5.60;;
8474;SDS011;4274;52.012;8.448;2022-08-03T02:37:30;52.60;;;6.10;;
8474;SDS011;4274;52.012;8.448;2022-08-03T02:40:03;51.83;;;5.37;;
8474;SDS011;4274;52.012;8.448;2022-08-03T02:42:31;50.97;;;5.40;;
8474;SDS011;4274;52.012;8.448;2022-08-03T02:44:58;57.40;;;6.27;;
8474;SDS011;4274;52.012;8.448;2022-08-03T02:47:28;62.80;;;6.00;;
8474;SDS011;4274;52.012;8.448;2022-08-03T02:49:55;54.60;;;5.70;;
8474;SDS011;4274;52.012;8.448;2022-08-03T02:52:23;52.70;;;5.83;;
8474;SDS011;4274;52.012;8.448;2022-08-03T02:54:54;50.70;;;5.60;;
8474;SDS011;4274;52.012;8.448;2022-08-03T02:57:24;51.80;;;5.87;;
8474;SDS011;4274;52.012;8.448;2022-08-03T02:59:52;54.67;;;5.20;;
8474;SDS011;4274;52.012;8.448;2022-08-03T03:02:19;51.17;;;5.63;;
8474;SDS011;4274;52.012;8.448;2022-08-03T03:04:45;49.50;;;5.10;;
8474;SDS011;4274;52.012;8.448;2022-08-03T03:07:13;49.60;;;6.20;;
8474;SDS011;4274;52.012;8.448;2022-08-03T03:09:41;50.03;;;5.13;;
8474;SDS011;4274;52.012;8.448;2022-08-03T03:12:07;51.40;;;5.70;;
8474;SDS011;4274;52.012;8.448;2022-08-03T03:14:35;52.10;;;5.27;;
8474;SDS011;4274;52.012;8.448;2022-08-03T03:17:01;52.97;;;5.80;;
8474;SDS011;4274;52.012;8.448;2022-08-03T03:19:29;52.00;;;5.60;;
8474;SDS011;4274;52.012;8.448;2022-08-03T03:21:56;50.70;;;6.10;;
8474;SDS011;4274;52.012;8.448;2022-08-03T03:24:24;50.07;;;5.27;;
8474;SDS011;4274;52.012;8.448;2022-08-03T03:26:51;49.47;;;4.87;;
8474;SDS011;4274;52.012;8.448;2022-08-03T03:29:17;50.03;;;5.60;;
8474;SDS011;4274;52.012;8.448;2022-08-03T03:31:43;51.00;;;5.10;;
8474;SDS011;4274;52.012;8.448;2022-08-03T03:34:09;60.33;;;5.80;;
8474;SDS011;4274;52.012;8.448;2022-08-03T03:36:35;49.27;;;5.13;;
8474;SDS011;4274;52.012;8.448;2022-08-03T03:39:00;51.60;;;5.67;;
8474;SDS011;4274;52.012;8.448;2022-08-03T03:41:26;49.20;;;5.60;;
8474;SDS011;4274;52.012;8.448;2022-08-03T03:43:52;56.10;;;5.20;;
8474;SDS011;4274;52.012;8.448;2022-08-03T03:46:18;51.63;;;5.43;;
8474;SDS011;4274;52.012;8.448;2022-08-03T03:48:44;50.33;;;5.60;;
8474;SDS011;4274;52.012;8.448;2022-08-03T03:51:09;58.90;;;5.60;;
8474;SDS011;4274;52.012;8.448;2022-08-03T03:53:35;49.13;;;5.43;;
8474;SDS011;4274;52.012;8.448;2022-08-03T03:56:01;53.23;;;5.73;;
8474;SDS011;4274;52.012;8.448;2022-08-03T03:58:27;49.87;;;5.50;;
8474;SDS011;4274;52.012;8.448;2022-08-03T04:00:52;53.30;;;5.40;;
8474;SDS011;4274;52.012;8.448;2022-08-03T04:03:18;50.40;;;5.40;;
8474;SDS011;4274;52.012;8.448;2022-08-03T04:05:44;52.70;;;5.63;;
8474;SDS011;4274;52.012;8.448;2022-08-03T04:08:28;52.87;;;5.40;;
8474;SDS011;4274;52.012;8.448;2022-08-03T04:13:50;49.47;;;4.63;;
8474;SDS011;4274;52.012;8.448;2022-08-03T04:16:20;50.47;;;5.13;;
8474;SDS011;4274;52.012;8.448;2022-08-03T04:18:50;52.43;;;5.60;;
8474;SDS011;4274;52.012;8.448;2022-08-03T04:21:19;50.20;;;5.50;;
8474;SDS011;4274;52.012;8.448;2022-08-03T04:23:47;50.47;;;6.07;;
8474;SDS011;4274;52.012;8.448;2022-08-03T04:26:15;51.80;;;5.13;;
8474;SDS011;4274;52.012;8.448;2022-08-03T04:28:45;51.57;;;5.47;;
8474;SDS011;4274;52.012;8.448;2022-08-03T04:31:12;50.13;;;5.10;;
8474;SDS011;4274;52.012;8.448;2022-08-03T04:33:39;54.10;;;5.27;;
8474;SDS011;4274;52.012;8.448;2022-08-03T04:36:07;51.40;;;5.27;;
8474;SDS011;4274;52.012;8.448;2022-08-03T04:38:37;48.33;;;4.27;;
8474;SDS011;4274;52.012;8.448;2022-08-03T04:41:08;49.87;;;4.80;;
8474;SDS011;4274;52.012;8.448;2022-08-03T04:43:34;52.20;;;4.80;;
8474;SDS011;4274;52.012;8.448;2022-08-03T04:46:03;54.30;;;4.33;;
8474;SDS011;4274;52.012;8.448;2022-08-03T04:48:30;48.80;;;4.70;;
8474;SDS011;4274;52.012;8.448;2022-08-03T04:50:56;50.77;;;4.80;;
8474;SDS011;4274;52.012;8.448;2022-08-03T04:53:22;51.10;;;4.83;;
8474;SDS011;4274;52.012;8.448;2022-08-03T04:55:48;49.40;;;4.80;;
8474;SDS011;4274;52.012;8.448;2022-08-03T04:58:13;50.20;;;5.20;;
8474;SDS011;4274;52.012;8.448;2022-08-03T05:00:39;51.17;;;5.00;;
8474;SDS011;4274;52.012;8.448;2022-08-03T05:03:04;49.00;;;4.40;;
8474;SDS011;4274;52.012;8.448;2022-08-03T05:05:30;49.30;;;4.40;;
8474;SDS011;4274;52.012;8.448;2022-08-03T05:07:56;51.83;;;4.60;;
8474;SDS011;4274;52.012;8.448;2022-08-03T05:10:21;53.33;;;4.47;;
8474;SDS011;4274;52.012;8.448;2022-08-03T05:12:47;57.90;;;4.53;;
8474;SDS011;4274;52.012;8.448;2022-08-03T05:15:15;49.60;;;4.60;;
8474;SDS011;4274;52.012;8.448;2022-08-03T05:17:41;48.87;;;4.77;;
8474;SDS011;4274;52.012;8.448;2022-08-03T05:20:06;50.37;;;4.27;;
8474;SDS011;4274;52.012;8.448;2022-08-03T05:22:33;48.77;;;4.30;;
8474;SDS011;4274;52.012;8.448;2022-08-03T05:24:59;50.07;;;5.10;;
8474;SDS011;4274;52.012;8.448;2022-08-03T05:27:25;50.80;;;4.50;;
8474;SDS011;4274;52.012;8.448;2022-08-03T05:29:51;49.00;;;4.53;;
8474;SDS011;4274;52.012;8.448;2022-08-03T05:32:16;51.60;;;4.60;;
8474;SDS011;4274;52.012;8.448;2022-08-03T05:34:42;48.87;;;4.67;;
8474;SDS011;4274;52.012;8.448;2022-08-03T05:37:08;50.80;;;5.00;;
8474;SDS011;4274;52.012;8.448;2022-08-03T05:39:34;48.70;;;4.30;;
8474;SDS011;4274;52.012;8.448;2022-08-03T05:42:00;48.10;;;4.10;;
8474;SDS011;4274;52.012;8.448;2022-08-03T05:44:26;51.30;;;4.30;;
8474;SDS011;4274;52.012;8.448;2022-08-03T05:46:52;49.83;;;4.87;;
8474;SDS011;4274;52.012;8.448;2022-08-03T05:49:18;53.60;;;4.77;;
8474;SDS011;4274;52.012;8.448;2022-08-03T05:51:44;49.30;;;4.13;;
8474;SDS011;4274;52.012;8.448;2022-08-03T05:54:10;50.30;;;4.40;;
8474;SDS011;4274;52.012;8.448;2022-08-03T05:56:36;52.17;;;4.17;;
8474;SDS011;4274;52.012;8.448;2022-08-03T05:59:01;52.50;;;4.50;;
8474;SDS011;4274;52.012;8.448;2022-08-03T06:01:27;50.13;;;4.30;;
8474;SDS011;4274;52.012;8.448;2022-08-03T06:03:56;54.53;;;4.27;;
8474;SDS011;4274;52.012;8.448;2022-08-03T06:06:22;54.73;;;4.40;;
8474;SDS011;4274;52.012;8.448;2022-08-03T06:08:47;54.57;;;4.20;;
8474;SDS011;4274;52.012;8.448;2022-08-03T06:11:13;49.93;;;3.87;;
8474;SDS011;4274;52.012;8.448;2022-08-03T06:13:39;54.20;;;3.90;;
8474;SDS011;4274;52.012;8.448;2022-08-03T06:16:05;54.10;;;4.17;;
8474;SDS011;4274;52.012;8.448;2022-08-03T06:18:30;50.97;;;4.23;;
8474;SDS011;4274;52.012;8.448;2022-08-03T06:20:56;49.90;;;3.47;;
8474;SDS011;4274;52.012;8.448;2022-08-03T06:23:22;48.93;;;3.70;;
8474;SDS011;4274;52.012;8.448;2022-08-03T06:25:47;49.63;;;3.87;;
8474;SDS011;4274;52.012;8.448;2022-08-03T06:28:13;50.23;;;4.23;;
8474;SDS011;4274;52.012;8.448;2022-08-03T06:30:39;53.70;;;3.90;;
8474;SDS011;4274;52.012;8.448;2022-08-03T06:33:05;49.80;;;3.83;;
8474;SDS011;4274;52.012;8.448;2022-08-03T06:35:32;50.73;;;4.00;;
8474;SDS011;4274;52.012;8.448;2022-08-03T06:37:57;50.77;;;4.27;;
8474;SDS011;4274;52.012;8.448;2022-08-03T06:40:23;53.47;;;4.80;;
8474;SDS011;4274;52.012;8.448;2022-08-03T06:42:55;53.40;;;4.27;;
8474;SDS011;4274;52.012;8.448;2022-08-03T06:45:22;50.83;;;4.33;;
8474;SDS011;4274;52.012;8.448;2022-08-03T06:47:58;51.67;;;4.87;;
8474;SDS011;4274;52.012;8.448;2022-08-03T06:50:31;52.87;;;4.80;;
8474;SDS011;4274;52.012;8.448;2022-08-03T06:52:58;59.90;;;4.60;;
8474;SDS011;4274;52.012;8.448;2022-08-03T06:55:24;50.97;;;4.73;;
8474;SDS011;4274;52.012;8.448;2022-08-03T06:57:50;53.40;;;4.57;;
8474;SDS011;4274;52.012;8.448;2022-08-03T07:00:16;52.23;;;4.70;;
8474;SDS011;4274;52.012;8.448;2022-08-03T07:02:42;56.10;;;5.00;;
8474;SDS011;4274;52.012;8.448;2022-08-03T07:05:08;51.40;;;4.73;;
8474;SDS011;4274;52.012;8.448;2022-08-03T07:07:34;50.80;;;4.40;;
8474;SDS011;4274;52.012;8.448;2022-08-03T07:10:00;57.10;;;4.93;;
8474;SDS011;4274;52.012;8.448;2022-08-03T07:12:26;54.47;;;5.17;;
8474;SDS011;4274;52.012;8.448;2022-08-03T07:14:53;51.37;;;5.10;;
8474;SDS011;4274;52.012;8.448;2022-08-03T07:17:19;58.67;;;5.20;;
8474;SDS011;4274;52.012;8.448;2022-08-03T07:19:45;52.17;;;4.77;;
8474;SDS011;4274;52.012;8.448;2022-08-03T07:22:10;51.57;;;5.17;;
8474;SDS011;4274;52.012;8.448;2022-08-03T07:24:36;49.33;;;3.87;;
8474;SDS011;4274;52.012;8.448;2022-08-03T07:27:02;56.93;;;5.13;;
8474;SDS011;4274;52.012;8.448;2022-08-03T07:29:28;51.80;;;5.03;;
8474;SDS011;4274;52.012;8.448;2022-08-03T07:31:53;52.13;;;5.07;;
8474;SDS011;4274;52.012;8.448;2022-08-03T07:34:19;57.13;;;5.17;;
8474;SDS011;4274;52.012;8.448;2022-08-03T07:36:45;49.20;;;4.20;;
8474;SDS011;4274;52.012;8.448;2022-08-03T07:39:10;51.70;;;4.40;;
8474;SDS011;4274;52.012;8.448;2022-08-03T07:41:36;50.27;;;4.40;;
8474;SDS011;4274;52.012;8.448;2022-08-03T07:44:02;53.50;;;4.40;;
8474;SDS011;4274;52.012;8.448;2022-08-03T07:46:27;52.40;;;5.17;;
8474;SDS011;4274;52.012;8.448;2022-08-03T07:48:53;51.17;;;4.77;;
8474;SDS011;4274;52.012;8.448;2022-08-03T07:51:19;53.70;;;4.50;;
8474;SDS011;4274;52.012;8.448;2022-08-03T07:53:44;54.50;;;4.80;;
8474;SDS011;4274;52.012;8.448;2022-08-03T07:56:10;54.03;;;4.77;;
8474;SDS011;4274;52.012;8.448;2022-08-03T07:58:35;50.17;;;4.37;;
8474;SDS011;4274;52.012;8.448;2022-08-03T08:01:01;51.00;;;3.83;;
8474;SDS011;4274;52.012;8.448;2022-08-03T08:03:27;50.77;;;4.17;;
8474;SDS011;4274;52.012;8.448;2022-08-03T08:05:53;51.77;;;4.30;;
8474;SDS011;4274;52.012;8.448;2022-08-03T08:08:19;48.17;;;3.80;;
8474;SDS011;4274;52.012;8.448;2022-08-03T08:10:44;52.70;;;4.70;;
8474;SDS011;4274;52.012;8.448;2022-08-03T08:13:11;56.73;;;3.90;;
8474;SDS011;4274;52.012;8.448;2022-08-03T08:15:36;54.50;;;4.33;;
8474;SDS011;4274;52.012;8.448;2022-08-03T08:18:02;51.13;;;3.90;;
8474;SDS011;4274;52.012;8.448;2022-08-03T08:20:31;53.03;;;4.07;;
8474;SDS011;4274;52.012;8.448;2022-08-03T08:22:59;52.03;;;5.07;;
8474;SDS011;4274;52.012;8.448;2022-08-03T08:25:26;49.50;;;3.83;;
8474;SDS011;4274;52.012;8.448;2022-08-03T08:27:51;53.73;;;3.73;;
8474;SDS011;4274;52.012;8.448;2022-08-03T08:30:18;53.17;;;3.83;;
8474;SDS011;4274;52.012;8.448;2022-08-03T08:32:45;50.10;;;3.50;;
8474;SDS011;4274;52.012;8.448;2022-08-03T08:35:12;51.60;;;3.70;;
8474;SDS011;4274;52.012;8.448;2022-08-03T08:37:37;52.43;;;3.73;;
8474;SDS011;4274;52.012;8.448;2022-08-03T08:40:05;50.67;;;3.63;;
8474;SDS011;4274;52.012;8.448;2022-08-03T08:42:32;49.57;;;3.73;;
8474;SDS011;4274;52.012;8.448;2022-08-03T08:45:01;52.17;;;4.10;;
8474;SDS011;4274;52.012;8.448;2022-08-03T08:47:29;49.70;;;3.63;;
8474;SDS011;4274;52.012;8.448;2022-08-03T08:49:56;52.27;;;4.23;;
8474;SDS011;4274;52.012;8.448;2022-08-03T08:52:24;50.00;;;3.37;;
8474;SDS011;4274;52.012;8.448;2022-08-03T08:54:52;52.23;;;3.30;;
8474;SDS011;4274;52.012;8.448;2022-08-03T08:57:23;52.77;;;3.80;;
8474;SDS011;4274;52.012;8.448;2022-08-03T08:59:53;56.03;;;3.10;;
8474;SDS011;4274;52.012;8.448;2022-08-03T09:02:21;51.97;;;3.80;;
8474;SDS011;4274;52.012;8.448;2022-08-03T09:04:48;53.23;;;3.33;;
8474;SDS011;4274;52.012;8.448;2022-08-03T09:07:15;52.57;;;3.40;;
8474;SDS011;4274;52.012;8.448;2022-08-03T09:09:41;51.97;;;3.50;;
8474;SDS011;4274;52.012;8.448;2022-08-03T09:12:07;52.20;;;3.00;;
8474;SDS011;4274;52.012;8.448;2022-08-03T09:14:33;52.80;;;3.57;;
8474;SDS011;4274;52.012;8.448;2022-08-03T09:17:00;49.97;;;3.13;;
8474;SDS011;4274;52.012;8.448;2022-08-03T09:19:27;51.80;;;3.20;;
8474;SDS011;4274;52.012;8.448;2022-08-03T09:24:55;51.40;;;3.20;;
8474;SDS011;4274;52.012;8.448;2022-08-03T09:27:45;51.40;;;3.00;;
8474;SDS011;4274;52.012;8.448;2022-08-03T09:30:14;52.03;;;3.30;;
8474;SDS011;4274;52.012;8.448;2022-08-03T09:32:42;50.97;;;3.50;;
8474;SDS011;4274;52.012;8.448;2022-08-03T09:35:09;53.17;;;3.03;;
8474;SDS011;4274;52.012;8.448;2022-08-03T09:37:37;58.60;;;3.67;;
8474;SDS011;4274;52.012;8.448;2022-08-03T09:40:03;50.10;;;2.67;;
8474;SDS011;4274;52.012;8.448;2022-08-03T09:42:29;49.40;;;2.87;;
8474;SDS011;4274;52.012;8.448;2022-08-03T09:44:55;50.20;;;2.77;;
8474;SDS011;4274;52.012;8.448;2022-08-03T09:50:12;50.47;;;2.73;;
8474;SDS011;4274;52.012;8.448;2022-08-03T09:52:39;51.70;;;2.87;;
8474;SDS011;4274;52.012;8.448;2022-08-03T09:55:09;48.60;;;2.30;;
8474;SDS011;4274;52.012;8.448;2022-08-03T09:57:36;51.33;;;2.77;;
8474;SDS011;4274;52.012;8.448;2022-08-03T10:00:35;51.00;;;2.70;;
8474;SDS011;4274;52.012;8.448;2022-08-03T10:03:02;54.47;;;2.17;;
8474;SDS011;4274;52.012;8.448;2022-08-03T10:05:32;52.53;;;2.43;;
8474;SDS011;4274;52.012;8.448;2022-08-03T10:07:58;51.67;;;2.20;;
8474;SDS011;4274;52.012;8.448;2022-08-03T10:10:23;49.00;;;2.70;;
8474;SDS011;4274;52.012;8.448;2022-08-03T10:12:49;48.50;;;2.30;;
8474;SDS011;4274;52.012;8.448;2022-08-03T10:15:15;50.22;;;2.60;;
8474;SDS011;4274;52.012;8.448;2022-08-03T10:17:41;51.20;;;2.70;;
8474;SDS011;4274;52.012;8.448;2022-08-03T10:20:07;49.22;;;2.45;;
8474;SDS011;4274;52.012;8.448;2022-08-03T10:22:34;51.53;;;2.83;;
8474;SDS011;4274;52.012;8.448;2022-08-03T10:27:35;49.95;;;2.58;;
8474;SDS011;4274;52.012;8.448;2022-08-03T10:30:03;49.78;;;2.42;;
8474;SDS011;4274;52.012;8.448;2022-08-03T10:37:40;49.88;;;2.40;;
8474;SDS011;4274;52.012;8.448;2022-08-03T10:40:08;48.92;;;2.25;;
8474;SDS011;4274;52.012;8.448;2022-08-03T10:42:40;49.72;;;2.20;;
8474;SDS011;4274;52.012;8.448;2022-08-03T10:45:18;48.70;;;2.40;;
8474;SDS011;4274;52.012;8.448;2022-08-03T10:47:48;48.10;;;1.92;;
8474;SDS011;4274;52.012;8.448;2022-08-03T10:50:15;52.50;;;2.50;;
8474;SDS011;4274;52.012;8.448;2022-08-03T10:52:54;52.97;;;2.40;;
8474;SDS011;4274;52.012;8.448;2022-08-03T10:55:35;50.30;;;2.25;;
8474;SDS011;4274;52.012;8.448;2022-08-03T11:01:00;58.80;;;2.50;;
8474;SDS011;4274;52.012;8.448;2022-08-03T11:03:27;50.28;;;2.50;;
8474;SDS011;4274;52.012;8.448;2022-08-03T11:05:52;50.55;;;2.20;;
8474;SDS011;4274;52.012;8.448;2022-08-03T11:08:37;49.58;;;2.42;;
8474;SDS011;4274;52.012;8.448;2022-08-03T11:13:55;50.50;;;2.58;;
8474;SDS011;4274;52.012;8.448;2022-08-03T11:16:21;51.53;;;2.20;;
8474;SDS011;4274;52.012;8.448;2022-08-03T11:19:00;58.40;;;2.88;;
8474;SDS011;4274;52.012;8.448;2022-08-03T11:46:06;52.85;;;2.80;;
8474;SDS011;4274;52.012;8.448;2022-08-03T11:48:41;97.63;;;5.65;;
8474;SDS011;4274;52.012;8.448;2022-08-03T11:53:57;54.50;;;2.72;;
8474;SDS011;4274;52.012;8.448;2022-08-03T11:56:24;51.67;;;2.80;;
8474;SDS011;4274;52.012;8.448;2022-08-03T11:58:54;50.60;;;2.95;;
8474;SDS011;4274;52.012;8.448;2022-08-03T12:01:22;48.30;;;2.65;;
8474;SDS011;4274;52.012;8.448;2022-08-03T12:03:49;53.67;;;2.85;;
8474;SDS011;4274;52.012;8.448;2022-08-03T12:06:15;52.22;;;3.33;;
8474;SDS011;4274;52.012;8.448;2022-08-03T12:08:43;50.58;;;2.63;;
8474;SDS011;4274;52.012;8.448;2022-08-03T12:11:10;55.75;;;3.58;;
8474;SDS011;4274;52.012;8.448;2022-08-03T12:13:46;51.60;;;3.10;;
8474;SDS011;4274;52.012;8.448;2022-08-03T12:16:17;50.83;;;2.60;;
8474;SDS011;4274;52.012;8.448;2022-08-03T12:21:26;50.75;;;3.50;;
8474;SDS011;4274;52.012;8.448;2022-08-03T12:23:59;53.97;;;2.72;;
8474;SDS011;4274;52.012;8.448;2022-08-03T12:26:27;51.67;;;2.85;;
8474;SDS011;4274;52.012;8.448;2022-08-03T12:28:53;52.90;;;2.47;;
8474;SDS011;4274;52.012;8.448;2022-08-03T12:31:18;51.47;;;2.22;;
8474;SDS011;4274;52.012;8.448;2022-08-03T12:33:57;50.80;;;2.63;;
8474;SDS011;4274;52.012;8.448;2022-08-03T12:36:23;49.00;;;2.60;;
8474;SDS011;4274;52.012;8.448;2022-08-03T12:38:57;54.33;;;2.50;;
8474;SDS011;4274;52.012;8.448;2022-08-03T12:41:31;51.70;;;2.95;;
8474;SDS011;4274;52.012;8.448;2022-08-03T12:43:59;54.10;;;2.85;;
8474;SDS011;4274;52.012;8.448;2022-08-03T12:46:34;53.88;;;2.75;;
8474;SDS011;4274;52.012;8.448;2022-08-03T12:49:07;50.13;;;2.70;;
8474;SDS011;4274;52.012;8.448;2022-08-03T12:54:07;49.00;;;2.35;;
8474;SDS011;4274;52.012;8.448;2022-08-03T12:56:34;52.25;;;2.40;;
8474;SDS011;4274;52.012;8.448;2022-08-03T12:59:23;49.22;;;2.33;;
8474;SDS011;4274;52.012;8.448;2022-08-03T13:01:50;51.08;;;2.35;;
8474;SDS011;4274;52.012;8.448;2022-08-03T13:04:25;48.80;;;2.28;;
8474;SDS011;4274;52.012;8.448;2022-08-03T13:07:02;52.97;;;3.00;;
8474;SDS011;4274;52.012;8.448;2022-08-03T13:09:52;49.55;;;2.50;;
8474;SDS011;4274;52.012;8.448;2022-08-03T13:12:26;48.35;;;2.40;;
8474;SDS011;4274;52.012;8.448;2022-08-03T13:14:54;48.72;;;2.53;;
8474;SDS011;4274;52.012;8.448;2022-08-03T13:17:21;50.58;;;2.75;;
8474;SDS011;4274;52.012;8.448;2022-08-03T13:19:47;50.90;;;2.53;;
8474;SDS011;4274;52.012;8.448;2022-08-03T13:22:24;52.95;;;2.38;;
8474;SDS011;4274;52.012;8.448;2022-08-03T13:24:53;51.45;;;2.45;;
8474;SDS011;4274;52.012;8.448;2022-08-03T13:27:20;51.83;;;2.80;;
8474;SDS011;4274;52.012;8.448;2022-08-03T13:29:46;47.95;;;2.10;;
8474;SDS011;4274;52.012;8.448;2022-08-03T13:32:11;49.22;;;2.50;;
8474;SDS011;4274;52.012;8.448;2022-08-03T13:34:37;50.17;;;2.42;;
8474;SDS011;4274;52.012;8.448;2022-08-03T13:37:03;62.90;;;2.80;;
8474;SDS011;4274;52.012;8.448;2022-08-03T13:39:29;50.92;;;2.28;;
8474;SDS011;4274;52.012;8.448;2022-08-03T13:41:54;57.67;;;2.78;;
8474;SDS011;4274;52.012;8.448;2022-08-03T13:44:21;51.92;;;3.10;;
8474;SDS011;4274;52.012;8.448;2022-08-03T13:46:47;54.10;;;2.47;;
8474;SDS011;4274;52.012;8.448;2022-08-03T13:49:13;60.83;;;2.85;;
8474;SDS011;4274;52.012;8.448;2022-08-03T13:51:39;55.67;;;2.72;;
8474;SDS011;4274;52.012;8.448;2022-08-03T13:54:05;55.20;;;2.38;;
8474;SDS011;4274;52.012;8.448;2022-08-03T13:56:31;53.57;;;2.80;;
8474;SDS011;4274;52.012;8.448;2022-08-03T13:58:57;55.88;;;2.95;;
8474;SDS011;4274;52.012;8.448;2022-08-03T14:01:23;55.60;;;2.90;;
8474;SDS011;4274;52.012;8.448;2022-08-03T14:03:49;55.90;;;3.10;;
8474;SDS011;4274;52.012;8.448;2022-08-03T14:06:18;57.87;;;3.00;;
8474;SDS011;4274;52.012;8.448;2022-08-03T14:08:44;56.00;;;3.00;;
8474;SDS011;4274;52.012;8.448;2022-08-03T14:11:10;51.10;;;2.53;;
8474;SDS011;4274;52.012;8.448;2022-08-03T14:13:36;52.30;;;2.67;;
8474;SDS011;4274;52.012;8.448;2022-08-03T14:16:02;52.73;;;2.67;;
8474;SDS011;4274;52.012;8.448;2022-08-03T14:18:28;56.13;;;2.97;;
8474;SDS011;4274;52.012;8.448;2022-08-03T14:20:53;52.83;;;2.53;;
8474;SDS011;4274;52.012;8.448;2022-08-03T14:23:19;50.93;;;2.83;;
8474;SDS011;4274;52.012;8.448;2022-08-03T14:25:45;50.27;;;2.50;;
8474;SDS011;4274;52.012;8.448;2022-08-03T14:28:11;50.30;;;2.43;;
8474;SDS011;4274;52.012;8.448;2022-08-03T14:30:37;53.43;;;3.23;;
8474;SDS011;4274;52.012;8.448;2022-08-03T14:33:02;55.33;;;3.13;;
8474;SDS011;4274;52.012;8.448;2022-08-03T14:35:28;51.67;;;2.93;;
8474;SDS011;4274;52.012;8.448;2022-08-03T14:37:53;53.53;;;3.00;;
8474;SDS011;4274;52.012;8.448;2022-08-03T14:40:19;60.57;;;3.07;;
8474;SDS011;4274;52.012;8.448;2022-08-03T14:42:45;51.70;;;2.50;;
8474;SDS011;4274;52.012;8.448;2022-08-03T14:45:10;55.30;;;2.87;;
8474;SDS011;4274;52.012;8.448;2022-08-03T14:47:37;57.47;;;2.67;;
8474;SDS011;4274;52.012;8.448;2022-08-03T14:50:04;52.10;;;2.77;;
8474;SDS011;4274;52.012;8.448;2022-08-03T14:52:30;51.10;;;2.60;;
8474;SDS011;4274;52.012;8.448;2022-08-03T14:54:56;55.50;;;3.00;;
8474;SDS011;4274;52.012;8.448;2022-08-03T14:57:22;57.07;;;2.90;;
8474;SDS011;4274;52.012;8.448;2022-08-03T14:59:48;56.20;;;3.10;;
8474;SDS011;4274;52.012;8.448;2022-08-03T15:02:14;56.23;;;3.10;;
8474;SDS011;4274;52.012;8.448;2022-08-03T15:04:39;54.43;;;3.10;;
8474;SDS011;4274;52.012;8.448;2022-08-03T15:07:05;53.77;;;3.10;;
8474;SDS011;4274;52.012;8.448;2022-08-03T15:09:31;60.23;;;3.47;;
8474;SDS011;4274;52.012;8.448;2022-08-03T15:11:56;53.53;;;3.13;;
8474;SDS011;4274;52.012;8.448;2022-08-03T15:14:22;53.60;;;2.87;;
8474;SDS011;4274;52.012;8.448;2022-08-03T15:16:48;51.57;;;2.73;;
8474;SDS011;4274;52.012;8.448;2022-08-03T15:19:14;53.27;;;3.20;;
8474;SDS011;4274;52.012;8.448;2022-08-03T15:21:39;51.80;;;2.90;;
8474;SDS011;4274;52.012;8.448;2022-08-03T15:24:05;50.53;;;2.93;;
8474;SDS011;4274;52.012;8.448;2022-08-03T15:26:31;53.70;;;2.67;;
8474;SDS011;4274;52.012;8.448;2022-08-03T15:28:56;54.43;;;2.70;;
8474;SDS011;4274;52.012;8.448;2022-08-03T15:31:22;50.90;;;2.60;;
8474;SDS011;4274;52.012;8.448;2022-08-03T15:33:48;53.77;;;2.90;;
8474;SDS011;4274;52.012;8.448;2022-08-03T15:36:18;52.03;;;2.70;;
8474;SDS011;4274;52.012;8.448;2022-08-03T15:38:44;52.67;;;3.17;;
8474;SDS011;4274;52.012;8.448;2022-08-03T15:41:11;55.27;;;2.40;;
8474;SDS011;4274;52.012;8.448;2022-08-03T15:43:37;58.63;;;2.87;;
8474;SDS011;4274;52.012;8.448;2022-08-03T15:46:03;58.13;;;2.90;;
8474;SDS011;4274;52.012;8.448;2022-08-03T15:48:29;49.37;;;2.40;;
8474;SDS011;4274;52.012;8.448;2022-08-03T15:50:54;55.10;;;2.37;;
8474;SDS011;4274;52.012;8.448;2022-08-03T15:53:20;49.40;;;2.37;;
8474;SDS011;4274;52.012;8.448;2022-08-03T15:55:45;59.87;;;3.23;;
8474;SDS011;4274;52.012;8.448;2022-08-03T15:58:11;58.50;;;3.77;;
8474;SDS011;4274;52.012;8.448;2022-08-03T16:00:37;51.27;;;3.00;;
8474;SDS011;4274;52.012;8.448;2022-08-03T16:03:03;55.03;;;3.03;;
8474;SDS011;4274;52.012;8.448;2022-08-03T16:05:29;53.27;;;2.73;;
8474;SDS011;4274;52.012;8.448;2022-08-03T16:07:54;56.57;;;3.17;;
8474;SDS011;4274;52.012;8.448;2022-08-03T16:10:20;52.33;;;3.20;;
8474;SDS011;4274;52.012;8.448;2022-08-03T16:12:46;59.60;;;2.90;;